Time;durP1;ratioP1;P1;durP2;ratioP2;P2;SDS_P1;SDS_P2;PMS_P1;PMS_P2;Temp;Humidity;BMP_temperature;BMP_pressure;BME280_temperature;BME280_humidity;BME280_pressure;Samples;Min_cycle;Max_cycle;Signal;HPM_P1;HPM_P2
2022/08/12 00:43:32;;;;;;;4.80;2.30;;;18.40;92.30;;;;;;5074194;28;20480;-69
2022/08/12 00:48:45;;;;;;;2.20;1.90;;;18.00;93.50;;;;;;5073954;28;20482;-69
2022/08/12 00:51:14;;;;;;;3.10;2.13;;;18.00;93.30;;;;;;5074100;28;20459;-69
2022/08/12 00:53:41;;;;;;;3.23;2.17;;;18.10;93.30;;;;;;5073515;28;20468;-69
2022/08/12 00:56:08;;;;;;;3.90;2.40;;;17.90;93.80;;;;;;5073921;28;20845;-69
2022/08/12 00:58:36;;;;;;;2.93;2.20;;;17.80;94.40;;;;;;5074074;28;20457;-69
2022/08/12 01:01:06;;;;;;;2.60;2.00;;;17.80;94.60;;;;;;5073894;28;20522;-69
2022/08/12 01:11:54;;;;;;;3.00;2.07;;;17.90;94.50;;;;;;5058538;28;20471;-69
2022/08/12 01:14:24;;;;;;;4.20;2.20;;;17.80;94.90;;;;;;5073536;28;20480;-69
2022/08/12 01:16:52;;;;;;;2.10;1.93;;;17.80;94.80;;;;;;5055831;28;20459;-69
2022/08/12 01:19:22;;;;;;;2.80;2.10;;;17.70;95.00;;;;;;5073294;28;20773;-69
2022/08/12 01:22:18;;;;;;;3.20;2.07;;;17.70;95.50;;;;;;5072996;28;20488;-69
2022/08/12 01:25:12;;;;;;;4.17;2.40;;;17.60;95.60;;;;;;5055233;28;20460;-69
2022/08/12 01:27:40;;;;;;;3.57;2.40;;;17.60;95.50;;;;;;5072737;28;20461;-69
2022/08/12 01:30:10;;;;;;;3.07;2.10;;;17.60;95.60;;;;;;5073104;28;20453;-69
2022/08/12 01:32:40;;;;;;;2.30;1.90;;;17.50;95.90;;;;;;5073190;28;20472;-69
2022/08/12 01:35:10;;;;;;;3.33;2.03;;;17.50;96.20;;;;;;5073077;28;20456;-69
2022/08/12 01:37:46;;;;;;;2.80;2.03;;;17.40;96.80;;;;;;5073015;28;20445;-69
2022/08/12 01:40:16;;;;;;;3.13;2.03;;;17.40;96.40;;;;;;5073093;28;20465;-69
2022/08/12 01:42:49;;;;;;;2.90;1.97;;;17.50;96.20;;;;;;5072927;28;20554;-69
2022/08/12 01:45:23;;;;;;;2.23;1.80;;;17.50;96.30;;;;;;5072455;28;20476;-69
2022/08/12 01:48:04;;;;;;;2.87;2.00;;;17.40;96.60;;;;;;5072805;28;20778;-69
2022/08/12 01:50:45;;;;;;;3.80;2.10;;;17.40;96.70;;;;;;5039388;28;20465;-69
2022/08/12 01:53:19;;;;;;;2.90;1.80;;;17.40;97.00;;;;;;5072903;28;20461;-69
2022/08/12 01:55:49;;;;;;;2.87;2.30;;;17.30;97.20;;;;;;5055672;28;20680;-69
2022/08/12 01:58:25;;;;;;;2.33;2.10;;;17.30;97.10;;;;;;5072913;28;20456;-69
2022/08/12 02:00:57;;;;;;;2.77;2.20;;;17.10;97.80;;;;;;5072749;28;20468;-69
2022/08/12 02:12:42;;;;;;;3.10;2.20;;;17.10;98.00;;;;;;5058354;28;20503;-69
2022/08/12 02:15:20;;;;;;;2.37;1.60;;;17.10;98.00;;;;;;5055258;28;20494;-69
2022/08/12 02:18:00;;;;;;;3.13;1.97;;;16.90;98.00;;;;;;5072170;28;20463;-69
2022/08/12 02:20:37;;;;;;;3.57;2.20;;;16.90;98.00;;;;;;5072249;28;20464;-69
2022/08/12 02:23:07;;;;;;;2.53;2.03;;;17.00;98.00;;;;;;5071934;28;20491;-69
2022/08/12 02:25:38;;;;;;;3.73;2.03;;;16.80;98.00;;;;;;5021299;28;20834;-69
2022/08/12 02:28:07;;;;;;;4.53;2.90;;;16.70;98.00;;;;;;5071907;28;20800;-69
2022/08/12 02:30:36;;;;;;;2.40;2.07;;;16.80;98.00;;;;;;5072075;28;20457;-69
2022/08/12 02:33:07;;;;;;;3.93;2.40;;;16.70;98.00;;;;;;5071763;28;20476;-69
2022/08/12 02:35:36;;;;;;;2.80;2.20;;;16.60;98.00;;;;;;5054379;28;20463;-69
2022/08/12 02:38:06;;;;;;;5.73;2.30;;;16.80;98.00;;;;;;5071650;28;20457;-69
2022/08/12 02:40:38;;;;;;;2.57;1.60;;;16.60;98.00;;;;;;5071878;28;20489;-69
2022/08/12 02:43:14;;;;;;;3.50;2.17;;;16.50;98.00;;;;;;5054471;28;20488;-69
2022/08/12 02:45:47;;;;;;;3.63;2.50;;;16.50;98.00;;;;;;5071750;28;20966;-69
2022/08/12 02:48:19;;;;;;;3.10;2.23;;;16.50;98.00;;;;;;5071627;28;20452;-69
2022/08/12 02:50:51;;;;;;;7.70;2.00;;;16.50;98.00;;;;;;5071528;28;20988;-69
2022/08/12 02:53:19;;;;;;;3.13;2.10;;;16.40;98.00;;;;;;5071856;28;20452;-69
2022/08/12 02:55:47;;;;;;;4.70;2.17;;;16.50;98.00;;;;;;5071608;28;20461;-69
2022/08/12 02:58:16;;;;;;;4.13;2.37;;;16.50;98.00;;;;;;5054151;28;20457;-69
2022/08/12 03:00:44;;;;;;;3.00;2.00;;;16.50;98.00;;;;;;5071754;28;20452;-69
2022/08/12 03:03:13;;;;;;;3.03;2.10;;;16.30;98.00;;;;;;5071315;28;20481;-69
2022/08/12 03:05:47;;;;;;;2.53;2.30;;;16.20;98.00;;;;;;5053660;28;20459;-69
2022/08/12 03:08:19;;;;;;;2.47;1.97;;;16.20;98.00;;;;;;5071237;28;20534;-69
2022/08/12 03:10:50;;;;;;;3.30;1.97;;;16.40;98.00;;;;;;5071353;28;20493;-71
2022/08/12 03:13:25;;;;;;;2.40;1.67;;;16.50;98.00;;;;;;5053607;28;20532;-71
2022/08/12 03:15:54;;;;;;;4.33;2.90;;;16.40;98.00;;;;;;5036931;28;20879;-71
2022/08/12 03:18:28;;;;;;;2.70;1.83;;;16.30;98.00;;;;;;5053427;28;20449;-71
2022/08/12 03:20:57;;;;;;;3.37;2.80;;;16.20;98.00;;;;;;5071378;28;20543;-71
2022/08/12 03:23:24;;;;;;;4.20;2.40;;;16.20;98.00;;;;;;5071133;28;20493;-71
2022/08/12 03:25:52;;;;;;;2.00;1.83;;;16.10;98.00;;;;;;5071113;28;20471;-71
2022/08/12 03:31:05;;;;;;;2.20;1.80;;;16.30;98.00;;;;;;5070034;28;20463;-71
2022/08/12 03:33:36;;;;;;;2.20;1.97;;;16.20;98.00;;;;;;5071194;28;20839;-71
2022/08/12 03:36:06;;;;;;;3.40;2.40;;;16.20;98.00;;;;;;5070939;28;20971;-71
2022/08/12 03:38:36;;;;;;;2.47;1.73;;;16.20;98.00;;;;;;5070945;28;20983;-71
2022/08/12 04:00:38;;;;;;;2.27;2.03;;;15.90;98.00;;;;;;5071363;28;20671;-71
2022/08/12 04:03:50;;;;;;;2.20;1.87;;;16.00;98.00;;;;;;5070733;28;20483;-71
2022/08/12 04:05:54;;;;;;;2.50;1.90;;;15.90;98.00;;;;;;5070511;28;20456;-70
2022/08/12 04:08:24;;;;;;;3.83;2.23;;;15.90;98.00;;;;;;5070794;28;20452;-71
2022/08/12 04:13:36;;;;;;;2.80;1.80;;;15.60;98.00;;;;;;5070824;28;20440;-71
2022/08/12 04:16:06;;;;;;;2.33;1.83;;;15.60;98.00;;;;;;5052807;28;20452;-71
2022/08/12 04:18:34;;;;;;;3.70;2.20;;;15.70;98.00;;;;;;5052859;28;20457;-71
2022/08/12 04:21:02;;;;;;;2.40;1.63;;;15.60;98.00;;;;;;5052834;28;20483;-71
2022/08/12 04:23:32;;;;;;;2.20;2.00;;;15.70;98.00;;;;;;5070392;28;20490;-71
2022/08/12 04:25:59;;;;;;;2.27;1.90;;;15.70;98.00;;;;;;5052723;28;20523;-71
2022/08/12 04:28:28;;;;;;;2.70;1.90;;;15.60;98.00;;;;;;5071003;28;20453;-71
2022/08/12 04:30:59;;;;;;;2.10;1.80;;;15.60;98.00;;;;;;5074329;28;20449;-71
2022/08/12 04:33:31;;;;;;;2.40;2.13;;;15.60;98.00;;;;;;5074145;28;20461;-70
2022/08/12 04:35:58;;;;;;;2.33;1.73;;;15.60;98.00;;;;;;5056921;28;20970;-71
2022/08/12 04:38:27;;;;;;;2.63;1.83;;;15.50;98.00;;;;;;5074067;28;20460;-70
2022/08/12 04:40:54;;;;;;;2.33;1.93;;;15.50;98.00;;;;;;5074085;28;20480;-70
2022/08/12 04:43:22;;;;;;;2.60;2.10;;;15.50;98.00;;;;;;5073905;28;20528;-70
2022/08/12 04:45:49;;;;;;;2.63;2.10;;;15.60;98.00;;;;;;5073867;28;20457;-71
2022/08/12 04:48:18;;;;;;;2.10;1.80;;;15.70;98.00;;;;;;5073972;28;20506;-71
2022/08/12 04:50:47;;;;;;;2.03;1.83;;;15.60;98.00;;;;;;5073888;28;20456;-70
2022/08/12 04:53:14;;;;;;;2.07;1.73;;;15.70;98.00;;;;;;5056305;28;20791;-70
2022/08/12 04:55:44;;;;;;;2.57;1.80;;;15.70;98.00;;;;;;5073887;28;20962;-71
2022/08/12 04:58:12;;;;;;;2.80;2.10;;;15.50;98.00;;;;;;5073831;28;20518;-70
2022/08/12 05:00:41;;;;;;;3.50;2.50;;;15.40;98.00;;;;;;5074190;28;20518;-71
2022/08/12 05:03:08;;;;;;;4.07;2.20;;;15.50;98.00;;;;;;5073750;28;20797;-70
2022/08/12 05:05:37;;;;;;;3.27;2.10;;;15.40;98.00;;;;;;5073914;28;20827;-71
2022/08/12 05:08:11;;;;;;;3.40;2.70;;;15.50;98.00;;;;;;5073496;28;20459;-71
2022/08/12 05:10:45;;;;;;;6.07;2.57;;;15.50;98.00;;;;;;5073829;28;20453;-70
2022/08/12 05:13:16;;;;;;;4.87;2.27;;;15.50;98.00;;;;;;5073633;28;20456;-70
2022/08/12 05:15:44;;;;;;;4.27;2.23;;;15.50;98.00;;;;;;5056044;28;20457;-70
2022/08/12 05:18:12;;;;;;;4.60;2.00;;;15.60;98.00;;;;;;5073205;28;20510;-70
2022/08/12 05:20:42;;;;;;;2.13;1.80;;;15.60;98.00;;;;;;5073494;28;20472;-70
2022/08/12 05:23:13;;;;;;;5.70;2.20;;;15.60;98.00;;;;;;5073243;28;20492;-70
2022/08/12 05:25:41;;;;;;;3.27;2.30;;;15.70;98.00;;;;;;5073214;28;20472;-71
2022/08/12 05:28:09;;;;;;;3.73;2.50;;;15.60;98.00;;;;;;5073244;28;20460;-71
2022/08/12 05:30:36;;;;;;;3.30;2.10;;;15.60;98.00;;;;;;5055281;28;20464;-70
2022/08/12 05:33:04;;;;;;;2.50;2.03;;;15.60;98.00;;;;;;5072885;28;20449;-71
2022/08/12 05:35:38;;;;;;;5.30;2.17;;;15.60;98.00;;;;;;5073266;28;20819;-70
2022/08/12 05:40:52;;;;;;;3.23;2.07;;;15.80;98.00;;;;;;5073083;28;20445;-71
2022/08/12 05:43:19;;;;;;;3.57;2.53;;;16.00;98.00;;;;;;5072978;28;20480;-72
2022/08/12 05:45:48;;;;;;;9.90;2.23;;;16.10;98.00;;;;;;5072828;28;20445;-73
2022/08/12 05:48:17;;;;;;;2.80;1.93;;;16.20;98.00;;;;;;5072852;28;20475;-73
2022/08/12 05:50:45;;;;;;;3.50;2.40;;;16.30;98.00;;;;;;5072634;28;20460;-72
2022/08/12 05:53:13;;;;;;;2.63;1.90;;;16.50;98.00;;;;;;5072770;28;20476;-72
2022/08/12 05:55:41;;;;;;;2.83;2.17;;;16.50;98.00;;;;;;5072857;28;20452;-72
2022/08/12 05:58:09;;;;;;;5.60;3.00;;;16.60;98.00;;;;;;5072419;28;20472;-73
2022/08/12 06:00:37;;;;;;;2.03;1.93;;;16.80;98.00;;;;;;5072948;28;20469;-73
2022/08/12 06:03:05;;;;;;;4.63;2.60;;;16.90;98.00;;;;;;5072706;28;20485;-72
2022/08/12 06:05:34;;;;;;;3.13;2.07;;;17.10;98.00;;;;;;5072643;28;20540;-72
2022/08/12 06:08:04;;;;;;;5.40;2.53;;;17.20;98.00;;;;;;5072435;28;20445;-72
2022/08/12 06:10:31;;;;;;;3.40;2.03;;;17.40;98.00;;;;;;5072320;28;21032;-73
2022/08/12 06:12:59;;;;;;;2.90;2.20;;;17.60;98.00;;;;;;5072336;28;20463;-73
2022/08/12 06:15:28;;;;;;;3.53;2.30;;;17.70;98.00;;;;;;5072325;28;20456;-72
2022/08/12 06:17:56;;;;;;;4.27;2.50;;;17.90;98.00;;;;;;5072195;28;20464;-74
2022/08/12 06:20:24;;;;;;;3.23;2.03;;;18.00;98.00;;;;;;5054571;28;20469;-72
2022/08/12 06:22:51;;;;;;;3.17;2.30;;;18.20;98.00;;;;;;5072045;28;20477;-73
2022/08/12 06:25:18;;;;;;;2.60;2.20;;;18.20;98.00;;;;;;5071969;28;20456;-72
2022/08/12 06:27:47;;;;;;;2.73;2.13;;;18.30;97.80;;;;;;5072025;28;20464;-72
2022/08/12 06:30:15;;;;;;;3.10;2.53;;;18.40;97.40;;;;;;5071977;28;20464;-72
2022/08/12 06:32:46;;;;;;;3.53;2.63;;;18.50;97.20;;;;;;5071939;28;20526;-72
2022/08/12 06:35:17;;;;;;;2.40;2.10;;;18.60;96.80;;;;;;5072052;28;20894;-73
2022/08/12 06:37:48;;;;;;;4.37;2.77;;;18.80;95.90;;;;;;5053860;28;20468;-72
2022/08/12 06:42:46;;;;;;;4.70;3.10;;;18.90;95.60;;;;;;5071836;28;20492;-72
2022/08/12 06:43:03;;;;;;;3.40;2.67;;;19.10;95.60;;;;;;5071417;28;20473;-72
2022/08/12 06:45:30;;;;;;;4.20;2.57;;;19.30;94.60;;;;;;5071643;28;20461;-72
2022/08/12 06:48:02;;;;;;;2.50;1.90;;;19.40;94.30;;;;;;5071648;28;20464;-72
2022/08/12 06:50:29;;;;;;;5.67;2.80;;;19.50;93.50;;;;;;5071671;28;20457;-72
2022/08/12 06:52:59;;;;;;;3.10;2.30;;;19.60;92.90;;;;;;5071182;28;20439;-73
2022/08/12 06:55:26;;;;;;;4.00;2.47;;;19.70;92.60;;;;;;5071672;28;20902;-70
2022/08/12 06:57:55;;;;;;;2.90;2.10;;;19.80;91.90;;;;;;5071758;28;20942;-70
2022/08/12 07:00:24;;;;;;;4.47;2.67;;;19.90;92.50;;;;;;5072246;28;20481;-70
2022/08/12 07:02:54;;;;;;;3.30;2.40;;;20.00;92.50;;;;;;5072032;28;20473;-70
2022/08/12 07:05:24;;;;;;;4.30;2.80;;;20.10;92.20;;;;;;5071865;28;20453;-70
2022/08/12 07:08:06;;;;;;;3.90;2.67;;;20.20;92.20;;;;;;5071903;28;20456;-70
2022/08/12 07:10:34;;;;;;;4.27;2.77;;;20.40;91.80;;;;;;5071733;28;20868;-70
2022/08/12 07:13:02;;;;;;;3.73;2.40;;;20.50;92.00;;;;;;5053696;28;20464;-70
2022/08/12 07:15:30;;;;;;;3.50;2.37;;;20.60;91.40;;;;;;5071279;28;20955;-70
2022/08/12 07:18:03;;;;;;;4.87;2.70;;;20.80;91.40;;;;;;5069019;28;20967;-70
2022/08/12 07:20:34;;;;;;;3.10;2.50;;;20.90;91.00;;;;;;5068657;28;20539;-70
2022/08/12 07:23:04;;;;;;;14.63;3.23;;;20.90;90.40;;;;;;5068304;28;20480;-71
2022/08/12 07:25:31;;;;;;;3.80;2.73;;;21.00;90.40;;;;;;5068266;28;20456;-70
2022/08/12 07:28:02;;;;;;;3.43;2.73;;;21.10;90.50;;;;;;5068379;28;20758;-70
2022/08/12 07:30:31;;;;;;;2.90;2.30;;;21.30;89.50;;;;;;5068276;28;20459;-70
2022/08/12 07:33:00;;;;;;;3.43;2.27;;;21.40;87.90;;;;;;5068210;28;20472;-72
2022/08/12 07:35:29;;;;;;;3.00;2.27;;;21.60;87.10;;;;;;5068167;28;20463;-70
2022/08/12 07:37:58;;;;;;;2.10;1.90;;;21.80;86.80;;;;;;5050483;28;20469;-70
2022/08/12 07:40:27;;;;;;;2.57;2.10;;;22.00;85.80;;;;;;5068223;28;20864;-70
2022/08/12 07:42:54;;;;;;;4.73;2.40;;;22.20;85.10;;;;;;5068001;28;20477;-70
2022/08/12 07:45:23;;;;;;;3.77;2.20;;;22.30;84.80;;;;;;5068032;28;20461;-70
2022/08/12 07:47:50;;;;;;;3.40;2.00;;;22.40;84.50;;;;;;5068129;28;20452;-71
2022/08/12 07:50:20;;;;;;;3.50;2.60;;;22.70;83.80;;;;;;5050072;28;20469;-70
2022/08/12 07:52:48;;;;;;;3.20;2.43;;;22.80;82.70;;;;;;5066630;28;20453;-70
2022/08/12 07:55:18;;;;;;;3.37;2.30;;;22.90;83.30;;;;;;5050533;28;20562;-70
2022/08/12 07:57:57;;;;;;;2.50;1.97;;;23.00;81.80;;;;;;5068056;28;20962;-70
2022/08/12 08:00:25;;;;;;;3.30;2.10;;;23.10;81.80;;;;;;5068492;28;20461;-70
2022/08/12 08:02:53;;;;;;;3.53;2.50;;;23.30;81.50;;;;;;5068445;28;20452;-72
2022/08/12 08:05:21;;;;;;;3.63;2.50;;;23.50;80.90;;;;;;5072313;28;20518;-71
2022/08/12 08:07:49;;;;;;;3.67;2.47;;;23.70;80.30;;;;;;5072475;28;20464;-70
2022/08/12 08:10:17;;;;;;;3.70;2.43;;;23.80;80.00;;;;;;5074684;28;20461;-70
2022/08/12 08:12:52;;;;;;;2.90;2.50;;;23.90;78.90;;;;;;5072160;28;20636;-70
2022/08/12 08:15:20;;;;;;;2.00;1.67;;;24.00;78.90;;;;;;5070128;28;20455;-71
2022/08/12 08:17:58;;;;;;;2.93;1.97;;;24.20;79.10;;;;;;5074299;28;20453;-71
2022/08/12 08:20:28;;;;;;;3.50;2.43;;;24.30;77.20;;;;;;5074519;28;20456;-70
2022/08/12 08:22:57;;;;;;;2.80;1.93;;;24.50;76.40;;;;;;5074365;28;20884;-71
2022/08/12 08:25:31;;;;;;;2.97;2.17;;;24.60;75.90;;;;;;5074554;28;20456;-70
2022/08/12 08:28:00;;;;;;;3.60;2.53;;;24.80;75.60;;;;;;5074427;28;20469;-70
2022/08/12 08:30:28;;;;;;;2.60;2.20;;;25.00;75.80;;;;;;5074172;28;20465;-71
2022/08/12 08:32:56;;;;;;;3.57;2.33;;;25.10;75.60;;;;;;5056518;28;20673;-70
2022/08/12 08:35:24;;;;;;;2.70;2.23;;;25.30;74.50;;;;;;5074012;28;20455;-70
2022/08/12 08:37:52;;;;;;;3.40;2.50;;;25.40;74.40;;;;;;5074621;28;20456;-71
2022/08/12 08:43:06;;;;;;;3.07;2.33;;;25.60;73.50;;;;;;5073914;28;20490;-70
2022/08/12 08:45:34;;;;;;;3.40;2.20;;;25.70;73.10;;;;;;5074595;28;20481;-70
2022/08/12 08:48:03;;;;;;;2.67;2.27;;;25.80;73.30;;;;;;5056859;28;20530;-70
2022/08/12 08:50:30;;;;;;;2.70;2.17;;;26.00;71.10;;;;;;5074788;28;20459;-70
2022/08/12 08:52:58;;;;;;;2.77;1.90;;;26.10;71.30;;;;;;5074853;28;20448;-70
2022/08/12 08:55:25;;;;;;;2.40;1.87;;;26.30;70.60;;;;;;5071908;28;20479;-70
2022/08/12 08:57:54;;;;;;;2.60;2.00;;;26.40;70.10;;;;;;5071554;28;20931;-70
2022/08/12 09:00:23;;;;;;;2.73;2.17;;;26.50;69.70;;;;;;5071751;28;20453;-70
2022/08/12 09:02:52;;;;;;;3.60;2.17;;;26.70;70.40;;;;;;5071802;28;20453;-66
2022/08/12 09:05:19;;;;;;;2.40;1.73;;;26.80;69.70;;;;;;5071762;28;20474;-66
2022/08/12 09:07:48;;;;;;;2.50;2.27;;;26.90;69.10;;;;;;5071394;28;20457;-65
2022/08/12 09:10:18;;;;;;;3.97;2.53;;;27.10;68.10;;;;;;5071399;28;20947;-66
2022/08/12 09:15:33;;;;;;;1.83;1.80;;;27.30;67.80;;;;;;5069614;28;20447;-67
2022/08/12 09:18:00;;;;;;;3.33;2.37;;;27.50;67.40;;;;;;5063405;28;20457;-66
2022/08/12 09:20:29;;;;;;;2.53;1.93;;;27.50;66.80;;;;;;5070821;28;20460;-66
2022/08/12 09:22:57;;;;;;;2.40;2.10;;;27.60;67.50;;;;;;5071120;28;20510;-69
2022/08/12 09:25:25;;;;;;;2.60;2.03;;;27.70;66.90;;;;;;5070989;28;20983;-70
2022/08/12 09:27:53;;;;;;;2.70;2.00;;;27.80;66.70;;;;;;5070766;28;20456;-69
2022/08/12 09:30:20;;;;;;;2.67;2.03;;;27.80;66.40;;;;;;5071135;28;20460;-69
2022/08/12 09:32:50;;;;;;;2.87;2.43;;;27.90;65.40;;;;;;5070877;28;20837;-69
2022/08/12 09:35:20;;;;;;;2.80;2.30;;;28.00;65.60;;;;;;5070934;28;20514;-70
2022/08/12 09:37:48;;;;;;;2.47;2.07;;;28.00;65.40;;;;;;5071012;28;20484;-69
2022/08/12 09:40:16;;;;;;;2.53;1.90;;;28.00;65.50;;;;;;5070888;28;20457;-69
2022/08/12 09:45:31;;;;;;;2.60;2.10;;;28.10;65.40;;;;;;5070959;28;20471;-67
2022/08/12 09:48:02;;;;;;;2.47;2.10;;;28.30;65.20;;;;;;5070716;28;20548;-67
2022/08/12 09:50:29;;;;;;;2.80;2.20;;;28.40;64.90;;;;;;5067474;28;20992;-68
2022/08/12 09:53:08;;;;;;;2.33;2.00;;;28.50;64.30;;;;;;5070765;28;20461;-67
2022/08/12 09:55:36;;;;;;;2.80;2.10;;;28.70;64.30;;;;;;5071154;28;20448;-67
2022/08/12 09:58:04;;;;;;;2.50;2.10;;;28.50;66.10;;;;;;5070700;28;20460;-67
2022/08/12 10:00:33;;;;;;;6.77;2.43;;;28.50;64.40;;;;;;5070324;28;20973;-68
2022/08/12 10:03:04;;;;;;;2.90;2.13;;;28.60;63.80;;;;;;5070785;28;20464;-67
2022/08/12 10:05:35;;;;;;;4.70;2.43;;;28.80;63.60;;;;;;5070639;28;20488;-67
2022/08/12 10:08:04;;;;;;;2.40;2.00;;;29.00;63.10;;;;;;5070470;28;20465;-69
2022/08/12 10:10:32;;;;;;;2.87;1.97;;;29.10;62.10;;;;;;5070434;28;20453;-71
2022/08/12 10:15:46;;;;;;;1.90;1.80;;;29.40;62.10;;;;;;5069909;28;20448;-69
2022/08/12 10:18:14;;;;;;;2.50;2.10;;;29.60;61.50;;;;;;5070248;28;20479;-69
2022/08/12 10:20:41;;;;;;;3.00;2.20;;;29.70;60.40;;;;;;5069952;28;20464;-70
2022/08/12 10:23:08;;;;;;;3.27;2.17;;;29.70;60.40;;;;;;5069944;28;20456;-70
2022/08/12 10:31:05;;;;;;;1.90;1.90;;;30.10;60.10;;;;;;5069852;28;20540;-69
2022/08/12 10:33:34;;;;;;;3.60;2.07;;;30.20;59.30;;;;;;5069863;28;20954;-70
2022/08/12 10:36:03;;;;;;;2.27;2.00;;;30.20;59.60;;;;;;5069645;28;20519;-71
2022/08/12 10:38:31;;;;;;;2.40;2.03;;;30.30;59.20;;;;;;5069919;28;20556;-69
2022/08/12 10:43:43;;;;;;;3.20;2.20;;;30.50;58.90;;;;;;5069078;28;20619;-66
2022/08/12 10:46:16;;;;;;;2.97;2.20;;;30.70;58.50;;;;;;5069179;28;20536;-65
2022/08/12 10:48:50;;;;;;;2.13;1.80;;;30.70;58.70;;;;;;5068759;28;20976;-67
2022/08/12 10:51:21;;;;;;;4.40;2.17;;;30.80;58.40;;;;;;5065663;28;20449;-68
2022/08/12 10:53:49;;;;;;;2.70;1.90;;;30.90;57.70;;;;;;5068240;28;20508;-66
2022/08/12 10:56:18;;;;;;;2.00;1.87;;;30.90;58.00;;;;;;5068704;28;20195;-69
2022/08/12 10:58:45;;;;;;;2.20;2.00;;;31.00;57.80;;;;;;5051120;28;20453;-67
2022/08/12 11:01:12;;;;;;;2.40;2.00;;;31.00;57.60;;;;;;5068753;28;20812;-67
2022/08/12 11:03:40;;;;;;;5.23;2.37;;;31.10;56.50;;;;;;5068926;28;20825;-68
2022/08/12 11:06:10;;;;;;;2.57;2.10;;;31.10;57.20;;;;;;5069078;28;20850;-69
2022/08/12 11:08:40;;;;;;;2.97;2.17;;;31.30;57.20;;;;;;5068752;28;20483;-67
2022/08/12 11:11:08;;;;;;;2.07;1.80;;;31.50;56.40;;;;;;5068780;28;20506;-67
2022/08/12 11:13:36;;;;;;;2.67;2.10;;;31.60;56.70;;;;;;5067553;28;20453;-68
2022/08/12 11:16:05;;;;;;;2.70;2.20;;;31.70;55.40;;;;;;5068668;28;20461;-68
2022/08/12 11:18:32;;;;;;;2.07;1.97;;;31.80;55.90;;;;;;5068973;28;20457;-67
2022/08/12 11:20:59;;;;;;;3.53;2.20;;;31.90;55.90;;;;;;5068529;28;20449;-68
2022/08/12 11:23:28;;;;;;;3.23;2.40;;;32.00;55.70;;;;;;5069123;28;20544;-71
2022/08/12 11:25:55;;;;;;;3.50;2.43;;;32.10;56.40;;;;;;5068457;28;20553;-69
2022/08/12 11:28:22;;;;;;;2.83;2.40;;;32.10;56.10;;;;;;5068883;28;20457;-65
2022/08/12 11:30:50;;;;;;;2.17;1.90;;;32.40;55.20;;;;;;5068517;28;20452;-69
2022/08/12 11:33:17;;;;;;;4.50;2.30;;;32.60;55.30;;;;;;5068636;28;20479;-70
2022/08/12 11:35:44;;;;;;;3.03;2.40;;;32.50;55.70;;;;;;5068354;28;20472;-71
2022/08/12 11:38:11;;;;;;;2.90;2.13;;;32.70;55.00;;;;;;5068292;28;20824;-70
2022/08/12 11:40:40;;;;;;;2.70;2.20;;;32.70;54.90;;;;;;5068626;28;20465;-69
2022/08/12 11:43:07;;;;;;;2.50;1.97;;;32.50;54.90;;;;;;5068125;28;20460;-68
2022/08/12 11:45:34;;;;;;;2.30;2.10;;;32.50;55.40;;;;;;5069246;28;20549;-70
2022/08/12 11:48:02;;;;;;;3.77;2.73;;;32.60;55.20;;;;;;5069149;28;20464;-73
2022/08/12 11:50:29;;;;;;;2.27;2.00;;;32.80;53.70;;;;;;5065483;28;20456;-68
2022/08/12 11:52:56;;;;;;;2.70;2.23;;;32.90;54.10;;;;;;5069310;28;20522;-70
2022/08/12 11:55:25;;;;;;;2.70;2.20;;;33.20;54.10;;;;;;5068506;28;20555;-71
2022/08/12 11:57:57;;;;;;;3.37;2.30;;;33.30;53.20;;;;;;5068826;28;20792;-71
2022/08/12 12:00:25;;;;;;;3.47;2.33;;;33.60;53.60;;;;;;5069904;28;20603;-71
2022/08/12 12:02:52;;;;;;;3.07;2.30;;;33.40;53.10;;;;;;5069834;28;20820;-71
2022/08/12 12:05:19;;;;;;;3.40;2.33;;;32.80;53.00;;;;;;5051688;28;20481;-71
2022/08/12 12:07:47;;;;;;;2.40;2.10;;;32.20;54.40;;;;;;5051568;28;20675;-71
2022/08/12 12:10:16;;;;;;;2.47;2.10;;;32.10;55.20;;;;;;5068639;28;20460;-68
2022/08/12 12:12:43;;;;;;;3.10;2.17;;;32.40;55.10;;;;;;5068356;28;20453;-68
2022/08/12 12:15:12;;;;;;;2.70;2.27;;;32.80;55.00;;;;;;5066745;28;20449;-68
2022/08/12 12:17:41;;;;;;;2.73;2.10;;;33.30;54.50;;;;;;5068637;28;20467;-68
2022/08/12 12:20:10;;;;;;;2.47;2.10;;;33.30;53.60;;;;;;5068156;28;20954;-69
2022/08/12 12:22:38;;;;;;;3.10;2.57;;;32.90;54.20;;;;;;5068091;28;20989;-71
2022/08/12 12:25:06;;;;;;;3.80;2.30;;;32.90;54.00;;;;;;5067699;28;20534;-69
2022/08/12 12:27:45;;;;;;;2.37;2.20;;;32.30;54.60;;;;;;5067879;28;20878;-68
2022/08/12 12:30:14;;;;;;;2.30;2.00;;;32.60;54.90;;;;;;5067689;28;20464;-66
2022/08/12 12:32:41;;;;;;;4.17;2.17;;;33.10;54.00;;;;;;5067798;28;20463;-72
2022/08/12 12:35:09;;;;;;;2.30;2.10;;;33.20;52.90;;;;;;5067731;28;20457;-71
2022/08/12 12:37:56;;;;;;;2.83;2.37;;;33.40;52.90;;;;;;5067923;28;20453;-70
2022/08/12 12:40:25;;;;;;;1.90;1.80;;;33.80;52.80;;;;;;5068260;28;20787;-72
2022/08/12 12:42:52;;;;;;;2.73;2.20;;;34.20;52.10;;;;;;5067888;28;20453;-72
2022/08/12 12:45:25;;;;;;;3.03;2.40;;;34.10;51.80;;;;;;5068056;28;21002;-72
2022/08/12 12:47:57;;;;;;;2.30;2.10;;;34.20;51.60;;;;;;5068023;28;20453;-71
2022/08/12 12:50:25;;;;;;;2.73;2.23;;;34.60;51.90;;;;;;5067937;28;20457;-71
2022/08/12 12:52:52;;;;;;;3.10;2.30;;;34.90;50.60;;;;;;5071575;28;20468;-71
2022/08/12 12:55:20;;;;;;;2.20;2.00;;;35.00;50.80;;;;;;5071999;28;20475;-72
2022/08/12 12:57:48;;;;;;;2.67;2.30;;;35.10;49.70;;;;;;5071360;28;20457;-71
2022/08/12 13:00:17;;;;;;;2.30;2.07;;;34.60;50.10;;;;;;5071342;28;20858;-71
2022/08/12 13:02:51;;;;;;;2.23;2.00;;;33.80;50.20;;;;;;5071103;28;20460;-71
2022/08/12 13:05:22;;;;;;;2.20;2.10;;;33.10;51.40;;;;;;5071104;28;20484;-71
2022/08/12 13:07:49;;;;;;;3.43;2.47;;;32.50;53.10;;;;;;5063601;28;20825;-70
2022/08/12 13:10:17;;;;;;;2.33;2.03;;;31.70;54.30;;;;;;5071019;28;21267;-70
2022/08/12 13:12:44;;;;;;;2.50;2.10;;;31.50;55.10;;;;;;5071155;28;20460;-69
2022/08/12 13:15:14;;;;;;;4.07;2.10;;;31.30;54.60;;;;;;5069186;28;20449;-69
2022/08/12 13:17:49;;;;;;;4.00;2.40;;;31.10;55.10;;;;;;5070847;28;20975;-70
2022/08/12 13:20:17;;;;;;;2.40;2.20;;;30.70;56.00;;;;;;5070863;28;20471;-71
2022/08/12 13:22:45;;;;;;;2.90;2.10;;;30.70;56.10;;;;;;5070828;28;20493;-70
2022/08/12 13:25:13;;;;;;;2.20;2.03;;;31.50;56.00;;;;;;5060500;28;20904;-69
2022/08/12 13:27:44;;;;;;;2.30;2.07;;;32.50;55.50;;;;;;5073381;28;21044;-71
2022/08/12 13:30:14;;;;;;;2.47;1.90;;;32.70;52.80;;;;;;5073054;28;20461;-71
2022/08/12 13:32:44;;;;;;;2.13;1.87;;;32.20;53.40;;;;;;5073161;28;20453;-71
2022/08/12 13:35:15;;;;;;;2.20;1.90;;;31.50;54.30;;;;;;5073188;28;20453;-71
2022/08/12 13:37:43;;;;;;;2.67;2.23;;;31.30;54.20;;;;;;5073086;28;20508;-65
2022/08/12 13:40:11;;;;;;;2.10;1.97;;;31.20;55.20;;;;;;5072813;28;20449;-67
2022/08/12 13:42:48;;;;;;;2.80;2.27;;;31.70;54.50;;;;;;5072885;28;20798;-69
2022/08/12 13:45:16;;;;;;;2.53;2.20;;;32.50;53.80;;;;;;5078001;28;20480;-68
2022/08/12 13:47:55;;;;;;;2.70;2.30;;;33.20;52.30;;;;;;5083683;28;20451;-70
2022/08/12 13:50:31;;;;;;;3.10;2.30;;;33.60;50.90;;;;;;5062618;28;20456;-68
2022/08/12 13:53:00;;;;;;;2.30;2.00;;;33.80;51.30;;;;;;5080483;28;20470;-72
2022/08/12 13:55:28;;;;;;;2.33;1.90;;;33.50;51.60;;;;;;5078294;28;20465;-65
2022/08/12 13:57:56;;;;;;;2.57;1.97;;;33.80;52.20;;;;;;5080069;28;20456;-66
2022/08/12 14:00:24;;;;;;;2.67;2.20;;;34.00;51.30;;;;;;5073602;28;20484;-66
2022/08/12 14:02:52;;;;;;;2.20;1.90;;;34.20;50.40;;;;;;5080587;28;20536;-68
2022/08/12 14:05:20;;;;;;;3.10;2.27;;;34.60;50.70;;;;;;5081443;28;20489;-69
2022/08/12 14:07:59;;;;;;;2.20;2.00;;;35.00;49.70;;;;;;5081338;28;20448;-69
2022/08/12 14:10:39;;;;;;;2.63;2.13;;;34.90;48.50;;;;;;5082878;28;20469;-70
2022/08/12 14:13:11;;;;;;;1.80;1.70;;;34.90;50.00;;;;;;5078588;28;20460;-72
2022/08/12 14:15:43;;;;;;;2.70;2.10;;;35.30;49.50;;;;;;5074599;28;20474;-73
2022/08/12 14:18:13;;;;;;;1.83;1.73;;;35.70;47.60;;;;;;5086221;28;20448;-71
2022/08/12 14:20:42;;;;;;;2.30;1.90;;;35.40;48.10;;;;;;5087452;28;20452;-71
2022/08/12 14:23:12;;;;;;;2.70;1.90;;;34.60;48.80;;;;;;5077929;28;20519;-71
2022/08/12 14:25:40;;;;;;;2.30;1.90;;;34.00;50.00;;;;;;5072615;28;20515;-69
2022/08/12 14:28:10;;;;;;;1.90;1.80;;;33.20;50.70;;;;;;5072523;28;20475;-68
2022/08/12 14:30:52;;;;;;;2.70;2.33;;;32.30;52.50;;;;;;5055307;28;20465;-67
2022/08/12 14:33:23;;;;;;;3.23;2.10;;;31.60;53.30;;;;;;5072943;28;20560;-67
2022/08/12 14:35:53;;;;;;;2.40;1.90;;;31.30;53.60;;;;;;5072572;28;20545;-67
2022/08/12 14:38:23;;;;;;;2.77;2.20;;;30.80;54.50;;;;;;5072867;28;20926;-66
2022/08/12 14:43:16;;;;;;;2.53;1.90;;;30.40;55.30;;;;;;5617392;22;20457;-67
2022/08/12 14:45:44;;;;;;;2.27;2.03;;;30.90;56.10;;;;;;5071036;28;20477;-67
2022/08/12 14:48:12;;;;;;;2.37;1.80;;;31.70;54.40;;;;;;5072474;28;20831;-64
2022/08/12 14:50:40;;;;;;;2.87;2.03;;;31.90;53.70;;;;;;5072366;28;20449;-66
2022/08/12 14:53:09;;;;;;;2.33;1.93;;;32.00;53.30;;;;;;5072434;28;20445;-66